Time;durP1;ratioP1;P1;durP2;ratioP2;P2;SDS_P1;SDS_P2;PMS_P1;PMS_P2;Temp;Humidity;BMP_temperature;BMP_pressure;BME280_temperature;BME280_humidity;BME280_pressure;Samples;Min_cycle;Max_cycle;Signal;HPM_P1;HPM_P2
2022/04/09 00:01:34;;;;;;;0.00;0.00;;;12.50;76.80;;;;;;4151219;28;20111;-67
2022/04/09 00:03:57;;;;;;;0.00;0.00;;;12.50;76.90;;;;;;4151060;28;20046;-68
2022/04/09 00:06:20;;;;;;;0.00;0.00;;;12.40;76.80;;;;;;4151065;28;20049;-70
2022/04/09 00:08:44;;;;;;;0.00;0.00;;;12.40;77.20;;;;;;4150593;28;20073;-66
2022/04/09 00:11:09;;;;;;;0.00;0.00;;;12.30;77.10;;;;;;4164757;28;20041;-66
2022/04/09 00:13:37;;;;;;;0.00;0.00;;;12.30;76.60;;;;;;4150875;28;20049;-70
2022/04/09 00:16:00;;;;;;;0.00;0.00;;;12.30;77.20;;;;;;4151110;28;20042;-70
2022/04/09 00:18:25;;;;;;;0.00;0.00;;;12.20;78.30;;;;;;4164481;28;20523;-68
2022/04/09 00:20:49;;;;;;;0.00;0.00;;;12.20;78.00;;;;;;4164912;28;20550;-69
2022/04/09 00:23:20;;;;;;;0.00;0.00;;;12.10;78.60;;;;;;4165355;28;20045;-68
2022/04/09 00:25:44;;;;;;;0.00;0.00;;;12.10;78.90;;;;;;4150694;28;20088;-67
2022/04/09 00:28:09;;;;;;;0.00;0.00;;;12.10;78.50;;;;;;4150786;28;20064;-70
2022/04/09 00:30:34;;;;;;;0.00;0.00;;;12.10;78.50;;;;;;4165125;28;20041;-68
2022/04/09 00:33:11;;;;;;;0.00;0.00;;;12.10;78.60;;;;;;4150167;28;20046;-69
2022/04/09 00:35:45;;;;;;;0.00;0.00;;;12.10;78.70;;;;;;4151863;28;20483;-72
2022/04/09 00:38:12;;;;;;;0.00;0.00;;;12.10;79.30;;;;;;4164371;28;20103;-67
2022/04/09 00:40:34;;;;;;;0.00;0.00;;;12.10;79.20;;;;;;4150710;28;20085;-71
2022/04/09 00:42:58;;;;;;;0.00;0.00;;;12.10;78.90;;;;;;4163635;28;20054;-69
2022/04/09 00:45:23;;;;;;;0.00;0.00;;;12.20;78.40;;;;;;4164294;28;20037;-69
2022/04/09 00:47:47;;;;;;;0.00;0.00;;;12.20;78.00;;;;;;4164276;28;20049;-69
2022/04/09 00:50:16;;;;;;;0.00;0.00;;;12.20;77.10;;;;;;4151120;28;20045;-67
2022/04/09 00:52:59;;;;;;;0.00;0.00;;;12.20;77.30;;;;;;4163680;28;20037;-69
2022/04/09 00:58:24;;;;;;;0.00;0.00;;;12.20;77.40;;;;;;4150140;28;20163;-69
2022/04/09 01:01:00;;;;;;;0.00;0.00;;;12.20;77.10;;;;;;4151253;28;20069;-68
2022/04/09 01:03:28;;;;;;;0.00;0.00;;;12.20;76.30;;;;;;4137969;28;20603;-68
2022/04/09 01:06:01;;;;;;;0.00;0.00;;;12.20;75.30;;;;;;4139414;28;20069;-71
2022/04/09 01:08:33;;;;;;;0.00;0.00;;;12.20;75.10;;;;;;4164064;28;20038;-67
2022/04/09 01:10:58;;;;;;;0.00;0.00;;;12.20;75.10;;;;;;4149847;28;20077;-70
2022/04/09 01:13:24;;;;;;;0.00;0.00;;;12.20;74.30;;;;;;4150158;28;20038;-68
2022/04/09 01:15:49;;;;;;;0.00;0.00;;;12.20;74.30;;;;;;4150483;28;20440;-69
2022/04/09 01:18:20;;;;;;;0.00;0.00;;;12.20;73.90;;;;;;4163708;28;20053;-69
2022/04/09 01:20:58;;;;;;;0.00;0.00;;;12.10;74.30;;;;;;4124304;28;20492;-69
2022/04/09 01:23:20;;;;;;;0.00;0.00;;;11.90;76.20;;;;;;4163855;28;20033;-69
2022/04/09 01:25:48;;;;;;;0.00;0.00;;;11.70;77.70;;;;;;4150093;28;20050;-66
2022/04/09 01:28:10;;;;;;;0.00;0.00;;;11.30;80.20;;;;;;4150242;28;20034;-67
2022/04/09 01:30:35;;;;;;;0.00;0.00;;;10.90;82.60;;;;;;4136975;28;20381;-68
2022/04/09 01:32:59;;;;;;;0.00;0.00;;;10.70;84.30;;;;;;4149916;28;20081;-67
2022/04/09 01:35:22;;;;;;;0.00;0.00;;;10.60;86.30;;;;;;4150210;28;20042;-67
2022/04/09 01:37:50;;;;;;;0.00;0.00;;;10.20;88.40;;;;;;4149985;28;20145;-66
2022/04/09 01:40:14;;;;;;;0.00;0.00;;;9.70;90.20;;;;;;4150124;28;20053;-70
2022/04/09 01:42:43;;;;;;;0.00;0.00;;;9.50;90.90;;;;;;4149809;28;20054;-72
2022/04/09 01:45:07;;;;;;;0.00;0.00;;;9.40;91.40;;;;;;4136271;28;20043;-67
2022/04/09 01:47:29;;;;;;;0.00;0.00;;;9.30;91.60;;;;;;4150028;28;20108;-69
2022/04/09 01:49:51;;;;;;;0.00;0.00;;;9.30;91.40;;;;;;4163713;28;20045;-69
2022/04/09 01:52:13;;;;;;;0.00;0.00;;;9.10;90.80;;;;;;4150018;28;20056;-70
2022/04/09 01:54:35;;;;;;;0.00;0.00;;;8.90;90.20;;;;;;4152882;28;20376;-69
2022/04/09 01:57:00;;;;;;;0.00;0.00;;;9.00;90.30;;;;;;4138921;28;20593;-68
2022/04/09 01:59:27;;;;;;;0.00;0.00;;;9.00;90.20;;;;;;4167006;28;20045;-71
2022/04/09 02:01:52;;;;;;;0.00;0.00;;;9.10;90.20;;;;;;4139338;28;20046;-68
2022/04/09 02:04:17;;;;;;;0.00;0.00;;;9.20;89.60;;;;;;4152998;28;20550;-70
2022/04/09 02:06:42;;;;;;;0.00;0.00;;;9.20;88.50;;;;;;4152688;28;20386;-70
2022/04/09 02:09:04;;;;;;;0.00;0.00;;;9.30;87.70;;;;;;4139314;28;20213;-66
2022/04/09 02:11:29;;;;;;;0.00;0.00;;;9.40;87.90;;;;;;4153092;28;20052;-69
2022/04/09 02:13:52;;;;;;;0.00;0.00;;;9.40;88.40;;;;;;4139186;28;20052;-67
2022/04/09 02:16:17;;;;;;;0.00;0.00;;;9.40;87.80;;;;;;4152736;28;20050;-69
2022/04/09 02:18:41;;;;;;;0.00;0.00;;;9.20;90.10;;;;;;4139237;28;20089;-69
2022/04/09 02:21:06;;;;;;;0.00;0.00;;;9.10;90.70;;;;;;4138897;28;20048;-68
2022/04/09 02:23:35;;;;;;;0.00;0.00;;;9.00;91.00;;;;;;4152595;28;20041;-69
2022/04/09 02:25:57;;;;;;;0.00;0.00;;;8.80;91.50;;;;;;4152743;28;20073;-67
2022/04/09 02:28:20;;;;;;;0.00;0.00;;;8.70;91.30;;;;;;4152583;28;20049;-70
2022/04/09 02:30:43;;;;;;;0.00;0.00;;;8.60;91.30;;;;;;4152307;28;20560;-70
2022/04/09 02:33:15;;;;;;;0.00;0.00;;;8.50;91.40;;;;;;4166499;28;20387;-72
2022/04/09 02:35:41;;;;;;;0.00;0.00;;;8.40;91.60;;;;;;4152537;28;20076;-70
2022/04/09 02:38:10;;;;;;;0.00;0.00;;;8.40;91.60;;;;;;4166277;28;20456;-69
2022/04/09 02:40:37;;;;;;;0.00;0.00;;;8.50;91.40;;;;;;4152385;28;20056;-69
2022/04/09 02:43:01;;;;;;;0.00;0.00;;;8.30;90.70;;;;;;4152094;28;20088;-70
2022/04/09 02:45:29;;;;;;;0.00;0.00;;;8.20;90.60;;;;;;4152510;28;20042;-69
2022/04/09 02:47:54;;;;;;;0.00;0.00;;;7.90;90.30;;;;;;4138983;28;20047;-70
2022/04/09 02:50:21;;;;;;;0.00;0.00;;;7.70;90.10;;;;;;4152377;28;20384;-68
2022/04/09 02:52:44;;;;;;;0.00;0.00;;;7.60;90.10;;;;;;4151921;28;20046;-67
2022/04/09 02:55:09;;;;;;;0.00;0.00;;;7.60;90.30;;;;;;4152343;28;20050;-68
2022/04/09 02:57:34;;;;;;;0.00;0.00;;;7.60;90.10;;;;;;4139006;28;20074;-68
2022/04/09 02:59:57;;;;;;;0.00;0.00;;;7.60;90.20;;;;;;4138451;28;20074;-70
2022/04/09 03:02:21;;;;;;;0.00;0.00;;;7.50;90.20;;;;;;4152142;28;20042;-69
2022/04/09 03:04:43;;;;;;;0.00;0.00;;;7.40;89.80;;;;;;4151010;28;20085;-68
2022/04/09 03:07:05;;;;;;;0.00;0.00;;;7.40;90.20;;;;;;4166047;28;20123;-69
2022/04/09 03:09:30;;;;;;;0.00;0.00;;;7.40;90.10;;;;;;4152140;28;20060;-70
2022/04/09 03:11:59;;;;;;;0.00;0.00;;;7.50;90.00;;;;;;4151772;28;20100;-67
2022/04/09 03:14:25;;;;;;;0.00;0.00;;;7.40;89.80;;;;;;4151994;28;20475;-67
2022/04/09 03:16:49;;;;;;;0.00;0.00;;;7.10;90.20;;;;;;4151655;28;20116;-67
2022/04/09 03:19:18;;;;;;;0.00;0.00;;;7.00;90.50;;;;;;4165358;28;20053;-67
2022/04/09 03:21:40;;;;;;;0.00;0.00;;;7.00;90.60;;;;;;4138263;28;20129;-70
2022/04/09 03:24:05;;;;;;;0.00;0.00;;;7.10;90.40;;;;;;4165524;28;20045;-70
2022/04/09 03:26:29;;;;;;;0.00;0.00;;;7.00;90.30;;;;;;4138236;28;20053;-70
2022/04/09 03:28:55;;;;;;;0.00;0.00;;;7.00;90.40;;;;;;4151180;28;20084;-71
2022/04/09 03:31:19;;;;;;;0.00;0.00;;;6.80;90.40;;;;;;4151686;28;20042;-68
2022/04/09 03:33:42;;;;;;;0.00;0.00;;;6.80;90.60;;;;;;4151695;28;20050;-72
2022/04/09 03:36:10;;;;;;;0.00;0.00;;;6.80;90.40;;;;;;4151575;28;20457;-71
2022/04/09 03:38:32;;;;;;;0.00;0.00;;;6.80;90.20;;;;;;4151596;28;20124;-68
2022/04/09 03:40:57;;;;;;;0.00;0.00;;;6.70;90.20;;;;;;4137574;28;20042;-66
2022/04/09 03:43:38;;;;;;;0.00;0.00;;;6.80;90.20;;;;;;4165386;28;20045;-67
2022/04/09 03:46:01;;;;;;;0.00;0.00;;;6.70;90.20;;;;;;4151496;28;20046;-68
2022/04/09 03:48:30;;;;;;;0.00;0.00;;;6.70;90.30;;;;;;4151421;28;20069;-69
2022/04/09 03:50:56;;;;;;;0.00;0.00;;;6.70;90.10;;;;;;4150931;28;20058;-67
2022/04/09 03:53:20;;;;;;;0.00;0.00;;;6.70;90.10;;;;;;4151517;28;20440;-66
2022/04/09 03:55:47;;;;;;;0.00;0.00;;;6.80;90.00;;;;;;4151489;28;20073;-67
2022/04/09 03:58:10;;;;;;;0.00;0.00;;;6.80;90.00;;;;;;4137290;28;20108;-67
2022/04/09 04:00:35;;;;;;;0.00;0.00;;;6.80;89.70;;;;;;4137443;28;20121;-69
2022/04/09 04:03:00;;;;;;;0.00;0.00;;;6.70;89.40;;;;;;4150689;28;20487;-69
2022/04/09 04:05:25;;;;;;;0.00;0.00;;;6.60;89.70;;;;;;4137465;28;20038;-67
2022/04/09 04:07:51;;;;;;;0.00;0.00;;;6.40;90.20;;;;;;4151066;28;20125;-68
2022/04/09 04:10:17;;;;;;;0.00;0.00;;;6.40;90.10;;;;;;4164844;28;20045;-68
2022/04/09 04:12:44;;;;;;;0.00;0.00;;;6.50;89.80;;;;;;4150755;28;20173;-68
2022/04/09 04:15:15;;;;;;;0.00;0.00;;;6.30;89.80;;;;;;4150810;28;20115;-66
2022/04/09 04:17:44;;;;;;;0.00;0.00;;;6.20;90.00;;;;;;4149916;28;20104;-70
2022/04/09 04:20:16;;;;;;;0.00;0.00;;;6.30;90.10;;;;;;4150882;28;20120;-68
2022/04/09 04:22:40;;;;;;;0.00;0.00;;;6.30;90.00;;;;;;4150563;28;20411;-71
2022/04/09 04:25:06;;;;;;;0.00;0.00;;;6.50;89.70;;;;;;4151049;28;20044;-70
2022/04/09 04:27:35;;;;;;;0.00;0.00;;;6.50;89.70;;;;;;4150863;28;20412;-68
2022/04/09 04:30:04;;;;;;;0.00;0.00;;;6.50;89.20;;;;;;4150653;28;20133;-66
2022/04/09 04:32:32;;;;;;;0.00;0.00;;;6.40;89.40;;;;;;4137035;28;20125;-67
2022/04/09 04:34:57;;;;;;;0.00;0.00;;;6.30;89.50;;;;;;4150156;28;20499;-67
2022/04/09 04:37:19;;;;;;;0.00;0.00;;;6.20;89.50;;;;;;4150700;28;20558;-66
2022/04/09 04:39:44;;;;;;;0.00;0.00;;;6.20;89.90;;;;;;4150631;28;20050;-68
2022/04/09 04:42:07;;;;;;;0.00;0.00;;;6.20;89.40;;;;;;4150834;28;20092;-70
2022/04/09 04:44:32;;;;;;;0.00;0.00;;;6.10;89.10;;;;;;4150663;28;20089;-70
2022/04/09 04:46:55;;;;;;;0.00;0.00;;;6.30;89.10;;;;;;4136457;28;20101;-70
2022/04/09 04:49:22;;;;;;;0.00;0.00;;;6.40;88.50;;;;;;4150359;28;20046;-69
2022/04/09 04:51:49;;;;;;;0.00;0.00;;;6.40;88.20;;;;;;4150594;28;20117;-68
2022/04/09 04:54:15;;;;;;;0.00;0.00;;;6.50;87.90;;;;;;4150501;28;20413;-69
2022/04/09 04:56:39;;;;;;;0.00;0.00;;;6.70;87.70;;;;;;4150204;28;20100;-70
2022/04/09 04:59:01;;;;;;;0.00;0.00;;;6.80;87.30;;;;;;4136378;28;20510;-69
2022/04/09 05:01:26;;;;;;;0.00;0.00;;;6.90;87.50;;;;;;4150322;28;20096;-68
2022/04/09 05:03:55;;;;;;;0.00;0.00;;;7.00;87.10;;;;;;4150445;28;20077;-70
2022/04/09 05:06:25;;;;;;;0.00;0.00;;;6.90;86.90;;;;;;4136704;28;20050;-68
2022/04/09 05:08:49;;;;;;;0.00;0.00;;;7.00;87.10;;;;;;4136667;28;20050;-66
2022/04/09 05:11:22;;;;;;;0.00;0.00;;;7.00;86.90;;;;;;4150390;28;20128;-67
2022/04/09 05:13:47;;;;;;;0.00;0.00;;;7.00;87.00;;;;;;4136751;28;20078;-68
2022/04/09 05:16:09;;;;;;;0.00;0.00;;;6.80;86.60;;;;;;4150049;28;20049;-68
2022/04/09 05:18:37;;;;;;;0.00;0.00;;;6.80;86.90;;;;;;4136552;28;20054;-66
2022/04/09 05:20:59;;;;;;;0.00;0.00;;;6.90;86.50;;;;;;4136241;28;20057;-67
2022/04/09 05:23:28;;;;;;;0.00;0.00;;;7.00;85.60;;;;;;4150148;28;20042;-69
2022/04/09 05:25:51;;;;;;;0.00;0.00;;;7.10;85.60;;;;;;4150088;28;20060;-66
2022/04/09 05:28:14;;;;;;;0.00;0.00;;;6.90;86.00;;;;;;4150406;28;20517;-71
2022/04/09 05:30:46;;;;;;;0.00;0.00;;;6.70;86.50;;;;;;4139287;28;20113;-68
2022/04/09 05:33:10;;;;;;;0.00;0.00;;;6.70;87.10;;;;;;4167159;28;20045;-69
2022/04/09 05:35:36;;;;;;;0.00;0.00;;;6.70;86.80;;;;;;4139683;28;20469;-69
2022/04/09 05:37:59;;;;;;;0.00;0.00;;;6.60;86.80;;;;;;4153144;28;20074;-71
2022/04/09 05:40:26;;;;;;;0.00;0.00;;;6.50;87.20;;;;;;4153133;28;20046;-68
2022/04/09 05:42:52;;;;;;;0.00;0.00;;;6.60;87.50;;;;;;4152704;28;20050;-69
2022/04/09 05:45:14;;;;;;;0.00;0.00;;;6.60;87.10;;;;;;4139639;28;20109;-67
2022/04/09 05:47:40;;;;;;;0.00;0.00;;;6.50;87.40;;;;;;4139402;28;20093;-67
2022/04/09 05:50:05;;;;;;;0.00;0.00;;;6.30;88.10;;;;;;4153237;28;20054;-66
2022/04/09 05:52:32;;;;;;;0.00;0.00;;;6.10;88.90;;;;;;4152997;28;20062;-68
2022/04/09 05:54:57;;;;;;;0.00;0.00;;;6.20;89.20;;;;;;4152598;28;20053;-67
2022/04/09 05:57:19;;;;;;;0.00;0.00;;;6.10;89.10;;;;;;4152911;28;20083;-69
2022/04/09 05:59:42;;;;;;;0.00;0.00;;;6.20;88.90;;;;;;4153274;28;20046;-68
2022/04/09 06:02:07;;;;;;;0.00;0.00;;;6.30;88.40;;;;;;4153182;28;20611;-67
2022/04/09 06:04:29;;;;;;;0.00;0.00;;;6.40;88.40;;;;;;4139684;28;20053;-69
2022/04/09 06:06:55;;;;;;;0.00;0.00;;;6.40;88.50;;;;;;4152672;28;20056;-71
2022/04/09 06:09:20;;;;;;;0.00;0.00;;;6.40;88.50;;;;;;4153223;28;20049;-69
2022/04/09 06:11:53;;;;;;;0.00;0.00;;;6.40;88.40;;;;;;4153299;28;20101;-70
2022/04/09 06:14:25;;;;;;;0.00;0.00;;;6.40;88.20;;;;;;4153118;28;20048;-72
2022/04/09 06:16:55;;;;;;;0.00;0.00;;;6.30;88.30;;;;;;4152644;28;20073;-69
2022/04/09 06:19:17;;;;;;;0.00;0.00;;;6.10;88.80;;;;;;4152679;28;20042;-69
2022/04/09 06:21:42;;;;;;;0.00;0.00;;;6.20;88.90;;;;;;4139433;28;20620;-72
2022/04/09 06:24:07;;;;;;;0.00;0.00;;;6.20;88.90;;;;;;4166892;28;20069;-70
2022/04/09 06:26:29;;;;;;;0.00;0.00;;;6.00;89.40;;;;;;4166612;28;20045;-73
2022/04/09 06:28:54;;;;;;;0.00;0.00;;;6.00;89.30;;;;;;4166182;28;20152;-69
2022/04/09 06:31:25;;;;;;;0.00;0.00;;;6.00;89.50;;;;;;4152919;28;20451;-72
2022/04/09 06:33:49;;;;;;;0.00;0.00;;;6.00;89.30;;;;;;4139402;28;20473;-69
2022/04/09 06:36:16;;;;;;;0.00;0.00;;;6.00;89.60;;;;;;4139116;28;20100;-68
2022/04/09 06:38:41;;;;;;;0.00;0.00;;;6.10;89.70;;;;;;4152871;28;20050;-70
2022/04/09 06:41:11;;;;;;;0.00;0.00;;;6.00;89.70;;;;;;4151308;28;20045;-71
2022/04/09 06:43:37;;;;;;;0.00;0.00;;;6.10;89.70;;;;;;4152756;28;20042;-70
2022/04/09 06:46:16;;;;;;;0.00;0.00;;;5.90;89.80;;;;;;4152826;28;20468;-70
2022/04/09 06:49:06;;;;;;;0.00;0.00;;;5.90;89.90;;;;;;4152234;28;20052;-70
2022/04/09 06:51:57;;;;;;;0.00;0.00;;;5.90;89.90;;;;;;4149308;28;20111;-72
2022/04/09 06:54:33;;;;;;;0.00;0.00;;;5.80;90.00;;;;;;4152346;28;20137;-70
2022/04/09 06:56:57;;;;;;;0.00;0.00;;;5.80;90.10;;;;;;4138001;28;20165;-72
2022/04/09 06:59:23;;;;;;;0.00;0.00;;;5.90;90.10;;;;;;4152224;28;20057;-69
2022/04/09 07:01:45;;;;;;;0.00;0.00;;;6.00;90.10;;;;;;4152436;28;20467;-70
2022/04/09 07:04:07;;;;;;;0.00;0.00;;;6.00;90.00;;;;;;4152443;28;20065;-71
2022/04/09 07:06:35;;;;;;;0.00;0.00;;;6.00;89.40;;;;;;4152215;28;20073;-72
2022/04/09 07:08:59;;;;;;;0.00;0.00;;;5.90;89.90;;;;;;4151944;28;20049;-67
2022/04/09 07:11:23;;;;;;;0.00;0.00;;;5.60;90.50;;;;;;4152066;28;20057;-70
2022/04/09 07:13:45;;;;;;;0.00;0.00;;;5.80;90.50;;;;;;4152056;28;20049;-69
2022/04/09 07:16:12;;;;;;;0.00;0.00;;;6.10;90.30;;;;;;4138549;28;20214;-70
2022/04/09 07:18:34;;;;;;;0.00;0.00;;;6.10;90.00;;;;;;4138559;28;20046;-69
2022/04/09 07:20:56;;;;;;;0.00;0.00;;;6.10;89.20;;;;;;4165391;28;20084;-72
2022/04/09 07:23:20;;;;;;;0.00;0.00;;;6.20;89.80;;;;;;4152203;28;20072;-72
2022/04/09 07:25:42;;;;;;;0.00;0.00;;;6.20;90.00;;;;;;4152273;28;20050;-68
2022/04/09 07:28:07;;;;;;;0.00;0.00;;;6.30;89.90;;;;;;4138224;28;20117;-70
2022/04/09 07:30:29;;;;;;;0.00;0.00;;;6.30;89.80;;;;;;4151992;28;20080;-70
2022/04/09 07:32:56;;;;;;;0.00;0.00;;;6.20;90.00;;;;;;4165131;28;20091;-73
2022/04/09 07:35:18;;;;;;;0.00;0.00;;;6.30;90.10;;;;;;4152036;28;20120;-72
2022/04/09 07:37:44;;;;;;;0.00;0.00;;;6.20;90.10;;;;;;4165775;28;20128;-71
2022/04/09 07:40:08;;;;;;;0.00;0.00;;;6.20;90.30;;;;;;4151888;28;20424;-72
2022/04/09 07:42:30;;;;;;;0.00;0.00;;;6.20;90.50;;;;;;4151968;28;20086;-71
2022/04/09 07:44:52;;;;;;;0.00;0.00;;;6.30;90.30;;;;;;4151530;28;20053;-71
2022/04/09 07:47:17;;;;;;;0.00;0.00;;;6.40;90.20;;;;;;4165798;28;20065;-71
2022/04/09 07:49:39;;;;;;;0.00;0.00;;;6.40;90.40;;;;;;4151973;28;20469;-72
2022/04/09 07:52:01;;;;;;;0.00;0.00;;;6.50;90.40;;;;;;4165604;28;20132;-70
2022/04/09 07:54:24;;;;;;;0.00;0.00;;;6.50;90.20;;;;;;4151710;28;20080;-68
2022/04/09 07:56:46;;;;;;;0.00;0.00;;;6.60;90.20;;;;;;4148231;28;20123;-71
2022/04/09 07:59:08;;;;;;;0.00;0.00;;;6.70;90.00;;;;;;4162649;28;20049;-71
2022/04/09 08:01:31;;;;;;;0.00;0.00;;;6.60;90.10;;;;;;4148661;28;20057;-69
2022/04/09 08:03:56;;;;;;;0.00;0.00;;;6.60;90.10;;;;;;4121731;28;20105;-69
2022/04/09 08:06:18;;;;;;;0.00;0.00;;;6.80;90.00;;;;;;4148727;28;20041;-71
2022/04/09 08:08:42;;;;;;;0.00;0.00;;;6.90;89.70;;;;;;4121278;28;20061;-71
2022/04/09 08:11:05;;;;;;;0.00;0.00;;;7.00;89.50;;;;;;4135216;28;20449;-70
2022/04/09 08:13:29;;;;;;;0.00;0.00;;;7.10;89.50;;;;;;4135181;28;20054;-68
2022/04/09 08:15:51;;;;;;;0.00;0.00;;;7.00;89.10;;;;;;4148796;28;20088;-70
2022/04/09 08:18:18;;;;;;;0.00;0.00;;;7.00;89.10;;;;;;4135321;28;20109;-73
2022/04/09 08:20:59;;;;;;;0.00;0.00;;;7.10;89.30;;;;;;4134651;28;20654;-71
2022/04/09 08:23:24;;;;;;;0.00;0.00;;;7.20;89.00;;;;;;4134877;28;20042;-71
2022/04/09 08:25:46;;;;;;;0.00;0.00;;;7.30;88.40;;;;;;4148589;28;20052;-68
2022/04/09 08:28:08;;;;;;;0.00;0.00;;;7.40;88.20;;;;;;4162542;28;20380;-70
2022/04/09 08:30:32;;;;;;;0.00;0.00;;;7.50;88.10;;;;;;4135365;28;20046;-69
2022/04/09 08:33:03;;;;;;;0.00;0.00;;;7.50;87.20;;;;;;4148158;28;20061;-71
2022/04/09 08:35:27;;;;;;;0.00;0.00;;;7.40;87.90;;;;;;4149597;28;20193;-69
2022/04/09 08:38:01;;;;;;;0.00;0.00;;;7.40;87.30;;;;;;4148549;28;20045;-72
2022/04/09 08:40:26;;;;;;;0.00;0.00;;;7.40;87.80;;;;;;4134718;28;20049;-72
2022/04/09 08:42:49;;;;;;;0.00;0.00;;;7.50;87.30;;;;;;4134201;28;20070;-70
2022/04/09 08:45:11;;;;;;;0.00;0.00;;;7.50;87.40;;;;;;4162065;28;20045;-68
2022/04/09 08:47:35;;;;;;;0.00;0.00;;;7.60;87.00;;;;;;4148216;28;20048;-70
2022/04/09 08:49:57;;;;;;;0.00;0.00;;;7.70;87.10;;;;;;4134266;28;20045;-70
2022/04/09 08:52:22;;;;;;;0.00;0.00;;;7.80;86.80;;;;;;4120966;28;20536;-69
2022/04/09 08:54:44;;;;;;;0.00;0.00;;;7.70;86.10;;;;;;4147658;28;20061;-71
2022/04/09 08:57:08;;;;;;;0.00;0.00;;;7.70;86.40;;;;;;4134565;28;20493;-71
2022/04/09 08:59:31;;;;;;;0.00;0.00;;;7.90;86.10;;;;;;4134502;28;20438;-71
2022/04/09 09:01:54;;;;;;;0.00;0.00;;;7.90;85.90;;;;;;4161700;28;20534;-71
2022/04/09 09:04:19;;;;;;;0.00;0.00;;;8.00;86.20;;;;;;4161245;28;20052;-67
2022/04/09 09:06:44;;;;;;;0.00;0.00;;;8.00;86.20;;;;;;4161546;28;20129;-71
2022/04/09 09:09:09;;;;;;;0.00;0.00;;;8.20;86.70;;;;;;4148049;28;20087;-72
2022/04/09 09:12:03;;;;;;;0.00;0.00;;;8.30;86.10;;;;;;4147710;28;20042;-72
2022/04/09 09:14:32;;;;;;;0.00;0.00;;;8.20;85.60;;;;;;4147806;28;20443;-69
2022/04/09 09:16:55;;;;;;;0.00;0.00;;;8.30;85.40;;;;;;4161395;28;20136;-71
2022/04/09 09:19:17;;;;;;;0.00;0.00;;;8.20;85.20;;;;;;4147929;28;20136;-71
2022/04/09 09:21:57;;;;;;;0.00;0.00;;;8.30;85.10;;;;;;4147833;28;20140;-70
2022/04/09 09:24:19;;;;;;;0.00;0.00;;;8.40;84.50;;;;;;4147777;28;20408;-71
2022/04/09 09:26:44;;;;;;;0.00;0.00;;;8.30;84.60;;;;;;4147185;28;20054;-71
2022/04/09 09:29:13;;;;;;;0.00;0.00;;;8.40;85.10;;;;;;4134181;28;20046;-71
2022/04/09 09:31:43;;;;;;;0.00;0.00;;;8.50;85.30;;;;;;4161382;28;20426;-74
2022/04/09 09:34:16;;;;;;;0.00;0.00;;;8.50;84.70;;;;;;4147705;28;20563;-71
2022/04/09 09:36:40;;;;;;;0.00;0.00;;;8.60;85.20;;;;;;4133853;28;20089;-71
2022/04/09 09:39:06;;;;;;;0.00;0.00;;;8.70;84.40;;;;;;4133654;28;20338;-68
2022/04/09 09:41:33;;;;;;;0.00;0.00;;;8.80;84.30;;;;;;4161213;28;20487;-73
2022/04/09 09:44:04;;;;;;;0.00;0.00;;;8.60;83.40;;;;;;4161315;28;20124;-70
2022/04/09 09:46:29;;;;;;;0.00;0.00;;;8.60;84.50;;;;;;4134188;28;20046;-68
2022/04/09 09:48:56;;;;;;;0.00;0.00;;;8.80;84.00;;;;;;4133468;28;20065;-71
2022/04/09 09:51:24;;;;;;;0.00;0.00;;;8.80;82.90;;;;;;4120731;28;20050;-69
2022/04/09 09:53:49;;;;;;;0.00;0.00;;;8.50;83.10;;;;;;4147599;28;20427;-70
2022/04/09 09:56:12;;;;;;;0.00;0.00;;;8.40;83.60;;;;;;4161469;28;20049;-74
2022/04/09 09:58:43;;;;;;;0.00;0.00;;;8.60;82.30;;;;;;4147640;28;20132;-68
2022/04/09 10:01:11;;;;;;;0.00;0.00;;;8.50;82.50;;;;;;4136647;28;20045;-69
2022/04/09 10:03:36;;;;;;;0.00;0.00;;;8.60;82.00;;;;;;4161078;28;20137;-72
2022/04/09 10:06:02;;;;;;;0.00;0.00;;;8.80;81.30;;;;;;4147346;28;20055;-72
2022/04/09 10:08:29;;;;;;;0.00;0.00;;;9.00;81.50;;;;;;4147791;28;20084;-71
2022/04/09 10:10:57;;;;;;;0.00;0.00;;;9.40;80.40;;;;;;4146942;28;20200;-71
2022/04/09 10:13:21;;;;;;;0.00;0.00;;;9.50;79.90;;;;;;4147356;28;20041;-72
2022/04/09 10:15:50;;;;;;;0.00;0.00;;;9.70;79.70;;;;;;4150336;28;20042;-71
2022/04/09 10:18:24;;;;;;;0.00;0.00;;;9.90;79.30;;;;;;4123140;28;20051;-70
2022/04/09 10:20:48;;;;;;;;;;;10.00;78.30;;;;;;4150311;28;20608;-71
2022/04/09 10:23:11;;;;;;;0.00;0.00;;;10.00;77.10;;;;;;4136936;28;19922;-71
2022/04/09 10:25:40;;;;;;;0.00;0.00;;;9.90;77.10;;;;;;4163836;28;20107;-71
2022/04/09 10:28:06;;;;;;;0.00;0.00;;;9.50;76.70;;;;;;4145804;28;20057;-68
2022/04/09 10:30:39;;;;;;;0.00;0.00;;;9.50;77.30;;;;;;4150229;28;20080;-71
2022/04/09 10:33:23;;;;;;;0.00;0.00;;;9.70;77.10;;;;;;4149808;28;20046;-70
2022/04/09 10:35:46;;;;;;;0.00;0.00;;;9.90;75.50;;;;;;4163985;28;20107;-71
2022/04/09 10:38:14;;;;;;;0.00;0.00;;;10.00;75.90;;;;;;4150241;28;20443;-70
2022/04/09 10:41:02;;;;;;;0.00;0.00;;;10.20;75.20;;;;;;4136454;28;20061;-71
2022/04/09 10:43:25;;;;;;;0.00;0.00;;;10.30;74.70;;;;;;4163424;28;20089;-73
2022/04/09 10:46:05;;;;;;;0.00;0.00;;;10.10;75.00;;;;;;4136340;28;20050;-69
2022/04/09 10:48:29;;;;;;;0.00;0.00;;;10.00;74.70;;;;;;4150053;28;20107;-72
2022/04/09 10:50:59;;;;;;;0.00;0.00;;;10.20;74.90;;;;;;4149935;28;20042;-71
2022/04/09 10:53:28;;;;;;;0.00;0.00;;;10.40;75.60;;;;;;4136393;28;20072;-72
2022/04/09 10:56:20;;;;;;;0.00;0.00;;;10.70;76.30;;;;;;4136187;28;20049;-69
2022/04/09 10:59:05;;;;;;;0.00;0.00;;;11.10;72.40;;;;;;4163424;28;20654;-69
2022/04/09 11:01:50;;;;;;;0.00;0.00;;;11.20;72.40;;;;;;4136108;28;20052;-70
2022/04/09 11:04:37;;;;;;;0.00;0.00;;;11.20;71.50;;;;;;4136105;28;20061;-69
2022/04/09 11:07:06;;;;;;;0.00;0.00;;;11.10;71.10;;;;;;4149192;28;20034;-69
2022/04/09 11:09:57;;;;;;;0.00;0.00;;;11.30;70.10;;;;;;4149834;28;20059;-72
2022/04/09 11:12:28;;;;;;;0.00;0.00;;;11.40;70.80;;;;;;4149783;28;20038;-71
2022/04/09 11:14:55;;;;;;;0.00;0.00;;;11.30;70.30;;;;;;4122463;28;20054;-73
2022/04/09 11:17:33;;;;;;;0.00;0.00;;;11.70;70.10;;;;;;4150032;28;20042;-71
2022/04/09 11:20:13;;;;;;;0.00;0.00;;;11.80;67.80;;;;;;4135937;28;20434;-71
2022/04/09 11:22:51;;;;;;;0.00;0.00;;;11.70;68.10;;;;;;4136054;28;20116;-72
2022/04/09 11:25:30;;;;;;;0.00;0.00;;;11.60;68.40;;;;;;4149073;28;20053;-71
2022/04/09 11:28:18;;;;;;;0.00;0.00;;;11.80;68.20;;;;;;4149498;28;20046;-71
2022/04/09 11:31:02;;;;;;;0.00;0.00;;;12.00;66.60;;;;;;4149200;28;20062;-72
2022/04/09 11:33:24;;;;;;;0.00;0.00;;;12.20;66.00;;;;;;4149519;28;20377;-72
2022/04/09 11:35:46;;;;;;;0.00;0.00;;;12.00;67.00;;;;;;4163093;28;20056;-70
2022/04/09 11:38:10;;;;;;;0.00;0.00;;;12.00;66.80;;;;;;4162863;28;20396;-73
2022/04/09 11:40:32;;;;;;;0.00;0.00;;;11.90;65.40;;;;;;4148970;28;20128;-70
2022/04/09 11:42:58;;;;;;;0.00;0.00;;;11.90;64.90;;;;;;4148444;28;20034;-70
2022/04/09 11:45:23;;;;;;;0.00;0.00;;;11.50;63.70;;;;;;4135109;28;20096;-70
2022/04/09 11:47:46;;;;;;;0.00;0.00;;;11.00;63.40;;;;;;4148610;28;20053;-69
2022/04/09 11:50:17;;;;;;;0.00;0.00;;;11.00;64.70;;;;;;4135104;28;20045;-70
2022/04/09 11:52:42;;;;;;;0.00;0.00;;;11.00;64.50;;;;;;4162467;28;20145;-72
2022/04/09 11:55:09;;;;;;;0.00;0.00;;;11.40;64.80;;;;;;4149095;28;20060;-70
2022/04/09 11:57:36;;;;;;;0.00;0.00;;;11.50;63.50;;;;;;4162629;28;20095;-70
2022/04/09 12:00:00;;;;;;;0.00;0.00;;;11.30;63.50;;;;;;4135430;28;20404;-71
2022/04/09 12:02:38;;;;;;;0.00;0.00;;;11.10;64.20;;;;;;4148648;28;20056;-69
2022/04/09 12:05:10;;;;;;;0.00;0.00;;;11.20;64.50;;;;;;4134454;28;20054;-72
2022/04/09 12:07:32;;;;;;;0.00;0.00;;;11.60;65.20;;;;;;4121826;28;20046;-68
2022/04/09 12:09:57;;;;;;;0.00;0.00;;;11.90;64.20;;;;;;4162701;28;20367;-74
2022/04/09 12:12:23;;;;;;;0.00;0.00;;;12.00;63.60;;;;;;4148996;28;20041;-70
2022/04/09 12:15:01;;;;;;;0.00;0.00;;;11.90;63.60;;;;;;4120965;28;20063;-71
2022/04/09 12:17:36;;;;;;;0.00;0.00;;;12.10;62.70;;;;;;4148701;28;20045;-71
2022/04/09 12:19:58;;;;;;;0.00;0.00;;;12.20;63.30;;;;;;4148430;28;20057;-69
2022/04/09 12:22:24;;;;;;;0.00;0.00;;;12.40;63.40;;;;;;4148316;28;20042;-68
2022/04/09 12:24:51;;;;;;;0.00;0.00;;;12.40;61.40;;;;;;4134807;28;20056;-72
2022/04/09 12:27:16;;;;;;;0.00;0.00;;;12.00;62.60;;;;;;4134786;28;20050;-71
2022/04/09 12:29:53;;;;;;;0.00;0.00;;;12.40;62.70;;;;;;4134798;28;20046;-75
2022/04/09 12:32:21;;;;;;;0.00;0.00;;;12.70;61.60;;;;;;4162312;28;20527;-72
2022/04/09 12:34:59;;;;;;;0.00;0.00;;;12.80;61.00;;;;;;4148049;28;20065;-70
2022/04/09 12:37:22;;;;;;;0.00;0.00;;;12.90;61.10;;;;;;4148101;28;20484;-69
2022/04/09 12:39:47;;;;;;;0.00;0.00;;;12.90;61.70;;;;;;4148270;28;20053;-71
2022/04/09 12:42:09;;;;;;;0.00;0.00;;;12.70;62.90;;;;;;4161968;28;20107;-70
2022/04/09 12:44:36;;;;;;;0.00;0.00;;;12.80;62.00;;;;;;4148295;28;20039;-71
2022/04/09 12:46:58;;;;;;;0.00;0.00;;;13.00;61.30;;;;;;4147679;28;20133;-72
2022/04/09 12:49:37;;;;;;;0.00;0.00;;;13.10;59.50;;;;;;4147477;28;20121;-69
2022/04/09 12:51:59;;;;;;;0.00;0.00;;;13.10;59.60;;;;;;4147968;28;20052;-71
2022/04/09 12:54:31;;;;;;;0.00;0.00;;;13.10;58.00;;;;;;4147978;28;20085;-72
2022/04/09 12:57:03;;;;;;;0.00;0.00;;;13.10;58.20;;;;;;4161331;28;20373;-69